createdAt,value
2022-10-31T00:00:51.514Z,87.58
2022-10-31T00:03:20.083Z,87.66
2022-10-31T00:05:51.722Z,87.34
2022-10-31T00:08:20.380Z,87.40
2022-10-31T00:10:48.404Z,87.17
2022-10-31T00:13:16.714Z,87.12
2022-10-31T00:15:46.153Z,87.21
2022-10-31T00:18:14.102Z,88.02
2022-10-31T00:20:42.062Z,87.85
2022-10-31T00:23:11.251Z,87.57
2022-10-31T00:25:41.147Z,87.61
2022-10-31T00:28:12.768Z,87.81
2022-10-31T00:30:40.822Z,87.96
2022-10-31T00:33:10.101Z,87.81
2022-10-31T00:35:38.579Z,87.57
2022-10-31T00:38:06.503Z,87.83
2022-10-31T00:40:34.615Z,87.99
2022-10-31T00:43:02.921Z,87.72
2022-10-31T00:45:31.301Z,87.72
2022-10-31T00:47:59.508Z,88.71
2022-10-31T00:50:29.040Z,87.94
2022-10-31T00:52:57.916Z,88.03
2022-10-31T00:55:26.919Z,88.27
2022-10-31T00:57:55.057Z,88.32
2022-10-31T01:00:23.829Z,88.32
2022-10-31T01:02:52.147Z,88.67
2022-10-31T01:05:20.326Z,89.49
2022-10-31T01:07:50.070Z,89.84
2022-10-31T01:10:18.996Z,90.56
2022-10-31T01:12:48.956Z,91.22
2022-10-31T01:15:19.330Z,90.54
2022-10-31T01:17:47.330Z,90.72
2022-10-31T01:20:16.949Z,89.61
2022-10-31T01:22:45.044Z,89.59
2022-10-31T01:25:14.554Z,89.72
2022-10-31T01:27:42.957Z,90.21
2022-10-31T01:30:13.474Z,89.49
2022-10-31T01:32:41.466Z,89.47
2022-10-31T01:35:09.493Z,89.56
2022-10-31T01:37:37.464Z,89.57
2022-10-31T01:40:06.382Z,89.65
2022-10-31T01:42:35.702Z,89.43
2022-10-31T01:45:06.428Z,89.64
2022-10-31T01:47:43.200Z,89.48
2022-10-31T01:50:21.678Z,89.00
2022-10-31T01:52:52.886Z,89.13
2022-10-31T01:55:27.754Z,89.20
2022-10-31T01:58:04.565Z,89.26
2022-10-31T02:00:32.977Z,89.21
2022-10-31T02:03:01.815Z,89.40
2022-10-31T02:05:31.862Z,89.89
2022-10-31T02:08:03.864Z,89.96
2022-10-31T02:10:33.737Z,90.37
2022-10-31T02:13:06.473Z,89.40
2022-10-31T02:15:39.651Z,90.62
2022-10-31T02:18:09.516Z,91.01
2022-10-31T02:20:47.562Z,91.56
2022-10-31T02:23:53.939Z,90.00
2022-10-31T02:27:06.314Z,89.70
2022-10-31T02:30:08.233Z,89.31
2022-10-31T02:32:48.719Z,90.01
2022-10-31T02:35:30.481Z,89.45
2022-10-31T02:38:04.691Z,89.40
2022-10-31T02:40:37.079Z,89.70
2022-10-31T02:43:33.279Z,89.63
2022-10-31T02:46:09.394Z,89.43
2022-10-31T02:48:42.042Z,89.50
2022-10-31T02:51:12.247Z,89.69
2022-10-31T02:53:40.649Z,89.72
2022-10-31T02:56:15.552Z,89.31
2022-10-31T02:58:47.743Z,89.37
2022-10-31T03:01:35.537Z,89.65
2022-10-31T03:04:24.888Z,90.45
2022-10-31T03:07:01.456Z,90.54
2022-10-31T03:09:42.296Z,90.56
2022-10-31T03:12:15.855Z,89.92
2022-10-31T03:14:54.009Z,89.81
2022-10-31T03:17:29.661Z,89.04
2022-10-31T03:20:03.107Z,88.96
2022-10-31T03:22:34.085Z,89.41
2022-10-31T03:25:05.067Z,88.89
2022-10-31T03:27:37.859Z,88.68
2022-10-31T03:30:08.871Z,89.22
2022-10-31T03:32:56.529Z,89.55
2022-10-31T03:35:29.547Z,89.54
2022-10-31T03:37:58.396Z,89.61
2022-10-31T03:40:29.228Z,89.11
2022-10-31T03:43:03.171Z,89.84
2022-10-31T03:45:38.052Z,89.55
2022-10-31T03:48:06.636Z,89.69
2022-10-31T03:50:45.853Z,89.65
2022-10-31T03:53:18.841Z,89.88
2022-10-31T03:55:53.434Z,89.85
2022-10-31T03:58:25.792Z,90.04
2022-10-31T04:00:58.244Z,90.01
2022-10-31T04:03:29.119Z,89.90
2022-10-31T04:06:04.975Z,89.34
2022-10-31T04:08:38.408Z,89.42
2022-10-31T04:11:09.476Z,89.16
2022-10-31T04:13:42.415Z,89.50
2022-10-31T04:16:17.578Z,89.38
2022-10-31T04:18:46.355Z,89.07
2022-10-31T04:21:15.655Z,89.14
2022-10-31T04:23:44.091Z,89.75
2022-10-31T04:26:19.737Z,89.87
2022-10-31T04:28:48.277Z,89.59
2022-10-31T04:31:16.959Z,89.46
2022-10-31T04:33:47.103Z,89.38
2022-10-31T04:36:16.456Z,89.42
2022-10-31T04:38:44.585Z,90.40
2022-10-31T04:41:28.622Z,90.47
2022-10-31T04:44:05.762Z,89.83
2022-10-31T04:46:34.183Z,89.71
2022-10-31T04:49:04.130Z,90.61
2022-10-31T04:51:33.413Z,90.07
2022-10-31T04:54:02.211Z,90.33
2022-10-31T04:56:32.993Z,89.93
2022-10-31T04:59:04.020Z,90.35
2022-10-31T05:01:44.156Z,90.08
2022-10-31T05:04:13.354Z,90.01
2022-10-31T05:06:42.748Z,90.21
2022-10-31T05:09:10.841Z,90.40
2022-10-31T05:11:39.737Z,90.04
2022-10-31T05:14:24.330Z,90.25
2022-10-31T05:17:17.805Z,90.30
2022-10-31T05:20:23.015Z,90.36
2022-10-31T05:23:17.262Z,90.44
2022-10-31T05:25:45.344Z,90.83
2022-10-31T05:28:13.723Z,90.31
2022-10-31T05:30:41.805Z,90.59
2022-10-31T05:33:14.018Z,91.47
2022-10-31T05:36:10.932Z,92.12
2022-10-31T05:39:06.430Z,91.52
2022-10-31T05:41:42.787Z,91.18
2022-10-31T05:44:16.786Z,90.81
2022-10-31T05:47:01.119Z,90.68
2022-10-31T05:49:49.328Z,90.39
2022-10-31T05:52:26.036Z,90.62
2022-10-31T05:55:05.723Z,91.05
2022-10-31T05:57:34.859Z,91.51
2022-10-31T06:00:03.657Z,91.14
2022-10-31T06:02:36.191Z,91.34
2022-10-31T06:05:22.586Z,91.66
2022-10-31T06:07:50.743Z,91.31
2022-10-31T06:10:20.452Z,91.79
2022-10-31T06:12:51.790Z,93.15
2022-10-31T06:15:30.589Z,93.78
2022-10-31T06:18:01.839Z,94.09
2022-10-31T06:20:32.169Z,92.86
2022-10-31T06:23:05.459Z,92.69
2022-10-31T06:25:36.191Z,92.48
2022-10-31T06:28:06.387Z,92.44
2022-10-31T06:30:50.559Z,92.65
2022-10-31T06:33:19.147Z,93.50
2022-10-31T06:35:57.153Z,93.44
2022-10-31T06:38:25.578Z,93.35
2022-10-31T06:40:54.994Z,92.65
2022-10-31T06:43:24.782Z,92.15
2022-10-31T06:46:04.777Z,92.40
2022-10-31T06:48:48.615Z,92.37
2022-10-31T06:51:21.843Z,92.41
2022-10-31T06:53:52.230Z,92.53
2022-10-31T06:56:22.090Z,92.58
2022-10-31T06:58:54.204Z,92.26
2022-10-31T07:01:37.570Z,92.41
2022-10-31T07:04:06.098Z,92.39
2022-10-31T07:06:36.850Z,92.16
2022-10-31T07:09:05.373Z,92.05
2022-10-31T07:11:34.771Z,92.97
2022-10-31T07:14:03.097Z,93.52
2022-10-31T07:16:31.115Z,92.86
2022-10-31T07:18:59.220Z,92.76
2022-10-31T07:21:27.366Z,91.87
2022-10-31T07:23:55.382Z,90.82
2022-10-31T07:26:43.396Z,91.00
2022-10-31T07:29:12.207Z,90.87
2022-10-31T07:31:40.810Z,90.30
2022-10-31T07:34:16.820Z,90.64
2022-10-31T07:37:03.414Z,91.32
2022-10-31T07:39:32.479Z,92.32
2022-10-31T07:42:02.513Z,93.00
2022-10-31T07:44:31.530Z,92.72
2022-10-31T07:47:31.648Z,92.48
2022-10-31T07:50:20.283Z,91.99
2022-10-31T07:53:08.778Z,90.03
2022-10-31T07:55:55.825Z,89.03
2022-10-31T07:58:31.474Z,89.20
2022-10-31T08:01:00.942Z,88.77
2022-10-31T08:03:39.701Z,88.55
2022-10-31T08:06:26.178Z,88.84
2022-10-31T08:09:13.191Z,89.35
2022-10-31T08:11:42.331Z,89.32
2022-10-31T08:14:11.684Z,89.56
2022-10-31T08:16:40.350Z,88.85
2022-10-31T08:19:09.360Z,89.40
2022-10-31T08:21:40.335Z,89.53
2022-10-31T08:24:10.318Z,89.60
2022-10-31T08:26:38.605Z,90.07
2022-10-31T08:29:11.332Z,89.80
2022-10-31T08:31:43.026Z,88.76
2022-10-31T08:34:29.832Z,88.50
2022-10-31T08:37:35.967Z,89.05
2022-10-31T08:40:06.394Z,88.50
2022-10-31T08:42:36.203Z,87.91
2022-10-31T08:45:06.808Z,87.26
2022-10-31T08:47:35.969Z,87.09
2022-10-31T08:50:04.178Z,86.37
2022-10-31T08:52:51.515Z,86.21
2022-10-31T08:55:20.407Z,85.80
2022-10-31T08:58:05.183Z,85.25
2022-10-31T09:00:43.677Z,84.48
2022-10-31T09:03:17.832Z,83.76
2022-10-31T09:05:46.832Z,83.38
2022-10-31T09:08:16.892Z,82.63
2022-10-31T09:10:47.872Z,83.08
2022-10-31T09:13:21.558Z,82.94
2022-10-31T09:16:23.021Z,80.63
2022-10-31T09:18:50.992Z,82.31
2022-10-31T09:21:18.903Z,82.42
2022-10-31T09:23:48.223Z,82.10
2022-10-31T09:26:16.803Z,81.60
2022-10-31T09:29:03.417Z,81.35
2022-10-31T09:31:34.352Z,80.17
2022-10-31T09:34:08.508Z,80.15
2022-10-31T09:36:40.023Z,81.53
2022-10-31T09:39:15.348Z,82.18
2022-10-31T09:41:59.155Z,81.97
2022-10-31T09:44:38.032Z,82.96
2022-10-31T09:47:15.983Z,82.78
2022-10-31T09:50:09.043Z,82.95
2022-10-31T09:52:41.891Z,84.02
2022-10-31T09:55:19.000Z,85.40
2022-10-31T09:57:49.897Z,85.83
2022-10-31T10:00:21.154Z,84.85
2022-10-31T10:02:55.311Z,83.82
2022-10-31T10:05:30.266Z,83.78
2022-10-31T10:08:06.250Z,83.76
2022-10-31T10:11:10.634Z,82.96
2022-10-31T10:13:57.371Z,82.43
2022-10-31T10:16:39.392Z,81.98
2022-10-31T10:19:27.875Z,81.18
2022-10-31T10:22:03.353Z,80.90
2022-10-31T10:24:43.196Z,80.60
2022-10-31T10:27:23.221Z,79.94
2022-10-31T10:29:59.757Z,80.49
2022-10-31T10:32:30.574Z,81.05
2022-10-31T10:35:09.641Z,80.67
2022-10-31T10:37:42.330Z,79.51
2022-10-31T10:40:17.796Z,79.47
2022-10-31T10:43:10.244Z,79.74
2022-10-31T10:45:57.663Z,79.68
2022-10-31T10:48:34.187Z,79.63
2022-10-31T10:51:06.211Z,79.16
2022-10-31T10:54:04.203Z,81.05
2022-10-31T10:56:43.297Z,80.19
2022-10-31T10:59:15.566Z,79.94
2022-10-31T11:01:45.176Z,78.89
2022-10-31T11:04:27.537Z,77.39
2022-10-31T11:07:11.621Z,79.62
2022-10-31T11:09:40.486Z,80.99
2022-10-31T11:12:11.095Z,80.82
2022-10-31T11:14:46.987Z,81.70
2022-10-31T11:17:33.014Z,81.39
2022-10-31T11:20:07.729Z,80.81
2022-10-31T11:22:37.088Z,81.85
2022-10-31T11:25:22.664Z,82.16
2022-10-31T11:28:01.151Z,83.92
2022-10-31T11:30:29.724Z,83.00
2022-10-31T11:32:59.136Z,82.79
2022-10-31T11:35:28.039Z,83.72
2022-10-31T11:38:03.578Z,83.55
2022-10-31T11:40:31.808Z,83.31
2022-10-31T11:43:01.317Z,85.23
2022-10-31T11:45:33.631Z,85.58
2022-10-31T11:48:03.644Z,85.74
2022-10-31T11:50:37.779Z,84.47
2022-10-31T11:53:16.913Z,85.55
2022-10-31T11:55:46.629Z,84.59
2022-10-31T11:58:26.618Z,83.76
2022-10-31T12:00:57.138Z,83.44
2022-10-31T12:03:50.872Z,82.94
2022-10-31T12:06:23.394Z,82.45
2022-10-31T12:08:52.796Z,82.47
2022-10-31T12:11:36.918Z,80.30
2022-10-31T12:14:19.423Z,83.44
2022-10-31T12:16:54.644Z,81.26
2022-10-31T12:19:37.626Z,80.98
2022-10-31T12:22:15.163Z,79.88
2022-10-31T12:25:13.493Z,81.46
2022-10-31T12:28:02.017Z,79.04
2022-10-31T12:30:41.185Z,77.89
2022-10-31T12:33:31.926Z,76.54
2022-10-31T12:36:15.582Z,76.71
2022-10-31T12:39:14.087Z,76.83
2022-10-31T12:41:49.265Z,78.94
2022-10-31T12:44:43.483Z,76.88
2022-10-31T12:47:48.694Z,76.92
2022-10-31T12:50:29.935Z,75.91
2022-10-31T12:53:09.046Z,76.18
2022-10-31T12:55:49.412Z,74.67
2022-10-31T12:58:24.089Z,74.07
2022-10-31T13:01:04.113Z,73.90
2022-10-31T13:03:38.261Z,73.45
2022-10-31T13:06:11.656Z,74.47
2022-10-31T13:08:45.413Z,73.89
2022-10-31T13:11:19.445Z,73.58
2022-10-31T13:13:56.496Z,73.89
2022-10-31T13:16:28.125Z,73.98
2022-10-31T13:19:00.044Z,73.64
2022-10-31T13:21:32.593Z,73.30
2022-10-31T13:24:06.425Z,73.04
2022-10-31T13:26:40.513Z,72.57
2022-10-31T13:29:19.978Z,71.38
2022-10-31T13:31:48.155Z,72.39
2022-10-31T13:34:27.988Z,73.56
2022-10-31T13:37:06.928Z,72.01
2022-10-31T13:39:59.408Z,71.39
2022-10-31T13:42:39.995Z,71.11
2022-10-31T13:45:16.724Z,72.06
2022-10-31T13:47:45.454Z,73.92
2022-10-31T13:50:25.334Z,74.53
2022-10-31T13:52:53.367Z,74.27
2022-10-31T13:55:42.822Z,74.47
2022-10-31T13:58:26.216Z,75.28
2022-10-31T14:01:17.664Z,76.08
2022-10-31T14:04:06.093Z,76.66
2022-10-31T14:06:39.801Z,76.49
2022-10-31T14:09:18.887Z,77.48
2022-10-31T14:11:49.063Z,76.34
2022-10-31T14:14:18.037Z,75.69
2022-10-31T14:16:49.948Z,75.35
2022-10-31T14:19:23.303Z,75.20
2022-10-31T14:21:52.245Z,75.11
2022-10-31T14:24:35.109Z,73.63
2022-10-31T14:27:04.931Z,73.63
2022-10-31T14:29:34.344Z,73.48
2022-10-31T14:32:12.125Z,72.62
2022-10-31T14:34:42.899Z,73.15
2022-10-31T14:37:33.116Z,73.47
2022-10-31T14:40:13.095Z,72.60
2022-10-31T14:43:01.508Z,73.53
2022-10-31T14:45:44.487Z,72.25
2022-10-31T14:48:36.160Z,71.27
2022-10-31T14:51:06.420Z,72.31
2022-10-31T14:53:36.843Z,72.64
2022-10-31T14:56:07.080Z,73.10
2022-10-31T14:58:45.660Z,72.31
2022-10-31T15:01:24.692Z,71.44
2022-10-31T15:04:21.799Z,71.83
2022-10-31T15:06:46.773Z,71.40
2022-10-31T15:09:25.904Z,70.80
2022-10-31T15:11:54.388Z,71.75
2022-10-31T15:14:28.170Z,72.16
2022-10-31T15:16:57.621Z,72.59
2022-10-31T15:19:29.384Z,72.15
2022-10-31T15:21:59.259Z,72.85
2022-10-31T15:24:34.301Z,73.31
2022-10-31T15:27:05.128Z,75.22
2022-10-31T15:29:33.531Z,75.69
2022-10-31T15:32:03.795Z,76.44
2022-10-31T15:34:39.440Z,76.24
2022-10-31T15:37:11.499Z,77.76
2022-10-31T15:39:39.637Z,76.93
2022-10-31T15:42:20.615Z,78.01
2022-10-31T15:44:51.886Z,77.54
2022-10-31T15:47:22.183Z,77.37
2022-10-31T15:49:53.860Z,77.45
2022-10-31T15:52:30.194Z,76.77
2022-10-31T15:55:00.954Z,77.03
2022-10-31T15:57:29.703Z,78.03
2022-10-31T15:59:58.080Z,78.76
2022-10-31T16:02:27.865Z,79.19
2022-10-31T16:04:59.561Z,79.90
2022-10-31T16:07:28.060Z,80.14
2022-10-31T16:09:58.110Z,80.63
2022-10-31T16:12:28.348Z,80.89
2022-10-31T16:14:57.227Z,80.88
2022-10-31T16:17:27.986Z,81.27
2022-10-31T16:20:02.600Z,81.86
2022-10-31T16:22:33.922Z,82.27
2022-10-31T16:25:07.127Z,83.19
2022-10-31T16:27:36.927Z,84.21
2022-10-31T16:30:26.508Z,84.62
2022-10-31T16:32:56.662Z,84.33
2022-10-31T16:35:29.432Z,84.35
2022-10-31T16:37:57.447Z,84.35
2022-10-31T16:40:25.753Z,84.99
2022-10-31T16:42:54.256Z,85.77
2022-10-31T16:45:24.225Z,87.57
2022-10-31T16:47:53.013Z,87.36
2022-10-31T16:50:23.875Z,86.93
2022-10-31T16:53:12.948Z,86.60
2022-10-31T16:55:46.715Z,86.52
2022-10-31T16:58:19.571Z,86.90
2022-10-31T17:00:47.990Z,87.22
2022-10-31T17:03:16.115Z,87.51
2022-10-31T17:05:44.091Z,87.79
2022-10-31T17:08:14.298Z,87.99
2022-10-31T17:10:43.771Z,88.15
2022-10-31T17:13:17.842Z,88.04
2022-10-31T17:15:48.315Z,88.36
2022-10-31T17:18:20.482Z,88.52
2022-10-31T17:20:50.952Z,88.98
2022-10-31T17:23:20.222Z,88.98
2022-10-31T17:25:48.198Z,89.02
2022-10-31T17:28:16.722Z,88.91
2022-10-31T17:30:45.338Z,89.32
2022-10-31T17:33:15.191Z,89.78
2022-10-31T17:35:43.198Z,89.78
2022-10-31T17:38:11.689Z,89.65
2022-10-31T17:40:42.775Z,89.67
2022-10-31T17:43:12.377Z,89.83
2022-10-31T17:45:41.468Z,90.30
2022-10-31T17:48:12.093Z,90.18
2022-10-31T17:50:40.179Z,90.36
2022-10-31T17:53:08.127Z,90.37
2022-10-31T17:55:37.590Z,90.79
2022-10-31T17:58:07.316Z,90.95
2022-10-31T18:00:35.420Z,90.76
2022-10-31T18:03:04.431Z,90.45
2022-10-31T18:05:32.939Z,90.71
2022-10-31T18:08:04.229Z,91.37
2022-10-31T18:10:32.643Z,91.24
2022-10-31T18:13:01.044Z,91.28
2022-10-31T18:15:30.690Z,91.11
2022-10-31T18:17:58.828Z,91.06
2022-10-31T18:20:27.001Z,91.28
2022-10-31T18:22:55.318Z,90.54
2022-10-31T18:25:23.392Z,90.36
2022-10-31T18:27:51.350Z,89.80
2022-10-31T18:30:19.324Z,89.82
2022-10-31T18:32:50.549Z,89.67
2022-10-31T18:35:19.057Z,89.89
2022-10-31T18:37:47.010Z,89.73
2022-10-31T18:40:15.050Z,89.29
2022-10-31T18:42:43.224Z,89.65
2022-10-31T18:45:31.323Z,89.58
2022-10-31T18:48:01.512Z,89.18
2022-10-31T18:50:29.735Z,89.31
2022-10-31T18:52:57.988Z,88.98
2022-10-31T18:55:26.253Z,89.01
2022-10-31T18:57:54.146Z,89.05
2022-10-31T19:00:22.365Z,89.50
2022-10-31T19:02:50.319Z,89.55
2022-10-31T19:05:21.478Z,89.34
2022-10-31T19:07:49.462Z,90.49
2022-10-31T19:10:17.708Z,90.68
2022-10-31T19:12:45.722Z,90.88
2022-10-31T19:15:13.836Z,90.63
2022-10-31T19:17:41.815Z,90.18
2022-10-31T19:20:10.991Z,89.83
2022-10-31T19:22:40.363Z,89.86
2022-10-31T19:25:10.697Z,90.59
2022-10-31T19:27:39.344Z,90.99
2022-10-31T19:30:08.857Z,90.84
2022-10-31T19:32:36.839Z,90.83
2022-10-31T19:35:09.022Z,89.95
2022-10-31T19:37:37.188Z,89.79
2022-10-31T19:40:09.355Z,88.39
2022-10-31T19:42:37.411Z,87.89
2022-10-31T19:45:06.173Z,87.42
2022-10-31T19:47:34.551Z,87.47
2022-10-31T19:50:04.943Z,88.31
2022-10-31T19:52:35.174Z,88.33
2022-10-31T19:55:03.488Z,87.41
2022-10-31T19:57:56.553Z,86.92
2022-10-31T20:00:23.359Z,86.66
2022-10-31T20:02:51.328Z,86.25
2022-10-31T20:05:19.279Z,86.36
2022-10-31T20:07:47.275Z,86.21
2022-10-31T20:10:15.194Z,86.38
2022-10-31T20:12:44.569Z,86.18
2022-10-31T20:15:12.555Z,85.80
2022-10-31T20:17:40.544Z,85.66
2022-10-31T20:20:09.688Z,85.67
2022-10-31T20:22:37.790Z,85.64
2022-10-31T20:25:06.849Z,86.13
2022-10-31T20:27:34.996Z,85.59
2022-10-31T20:30:04.679Z,86.11
2022-10-31T20:32:32.625Z,86.62
2022-10-31T20:35:00.635Z,86.47
2022-10-31T20:37:28.745Z,86.71
2022-10-31T20:39:56.807Z,86.72
2022-10-31T20:42:24.833Z,86.44
2022-10-31T20:44:52.780Z,86.31
2022-10-31T20:47:24.894Z,86.52
2022-10-31T20:49:53.943Z,85.98
2022-10-31T20:52:21.953Z,86.16
2022-10-31T20:54:49.940Z,86.10
2022-10-31T20:57:18.138Z,86.19
2022-10-31T20:59:46.035Z,85.90
2022-10-31T21:02:14.110Z,86.25
2022-10-31T21:04:43.633Z,85.24
2022-10-31T21:07:11.596Z,85.01
2022-10-31T21:09:39.526Z,84.84
2022-10-31T21:12:08.050Z,85.04
2022-10-31T21:14:36.557Z,85.11
2022-10-31T21:17:04.780Z,84.94
2022-10-31T21:19:33.408Z,84.63
2022-10-31T21:22:02.923Z,84.39
2022-10-31T21:24:30.908Z,84.19
2022-10-31T21:26:58.933Z,84.27
2022-10-31T21:29:26.866Z,84.16
2022-10-31T21:31:54.870Z,84.35
2022-10-31T21:34:22.850Z,84.10
2022-10-31T21:36:50.831Z,83.62
2022-10-31T21:39:20.228Z,83.52
2022-10-31T21:41:48.186Z,84.50
2022-10-31T21:44:16.158Z,85.78
2022-10-31T21:46:44.986Z,86.69
2022-10-31T21:49:13.011Z,86.29
2022-10-31T21:51:42.804Z,87.54
2022-10-31T21:54:28.474Z,86.79
2022-10-31T21:56:58.802Z,86.59
2022-10-31T21:59:27.313Z,85.96
2022-10-31T22:01:57.077Z,84.11
2022-10-31T22:04:25.702Z,82.93
2022-10-31T22:06:53.954Z,81.53
2022-10-31T22:09:23.355Z,81.48
2022-10-31T22:11:51.725Z,81.54
2022-10-31T22:14:21.141Z,80.32
2022-10-31T22:16:49.102Z,79.90
2022-10-31T22:19:17.056Z,79.83
2022-10-31T22:21:48.635Z,80.29
2022-10-31T22:24:17.272Z,79.56
2022-10-31T22:26:45.322Z,79.39
2022-10-31T22:29:15.882Z,80.07
2022-10-31T22:31:51.905Z,80.63
2022-10-31T22:34:23.252Z,81.42
2022-10-31T22:36:51.281Z,81.59
2022-10-31T22:39:19.438Z,83.72
2022-10-31T22:41:47.399Z,84.80
2022-10-31T22:44:15.373Z,84.34
2022-10-31T22:46:43.419Z,85.03
2022-10-31T22:49:15.319Z,85.24
2022-10-31T22:51:44.611Z,85.31
2022-10-31T22:54:14.718Z,85.04
2022-10-31T22:56:42.844Z,85.48
2022-10-31T22:59:13.056Z,86.11
2022-10-31T23:01:41.235Z,85.77
2022-10-31T23:06:39.240Z,86.32
2022-10-31T23:09:08.759Z,85.53
2022-10-31T23:11:39.826Z,85.15
2022-10-31T23:14:12.020Z,84.49
2022-10-31T23:16:43.629Z,84.13
2022-10-31T23:19:14.590Z,84.19
2022-10-31T23:21:59.907Z,83.83
2022-10-31T23:24:31.012Z,83.65
2022-10-31T23:27:10.934Z,81.81
2022-10-31T23:29:45.308Z,79.54
2022-10-31T23:32:20.296Z,81.55
2022-10-31T23:34:49.773Z,83.39
2022-10-31T23:37:20.589Z,84.08
2022-10-31T23:39:49.508Z,84.92
2022-10-31T23:42:18.778Z,85.64
2022-10-31T23:44:47.314Z,84.81
2022-10-31T23:47:15.703Z,85.47
2022-10-31T23:49:43.857Z,86.26
2022-10-31T23:52:12.497Z,85.74
2022-10-31T23:54:41.974Z,85.52
2022-10-31T23:57:11.223Z,84.76
2022-10-31T23:59:39.229Z,84.62
